METAR Data
IDs: Format: Raw Decoded Include TAF

Data at: 0807 UTC 18 Sep 2021

EGSY 180750Z 05007KT CAVOK 17/14 Q1013